createdAt,value
2023-03-10T00:00:46.756Z,1.60
2023-03-10T00:03:17.550Z,1.47
2023-03-10T00:05:47.100Z,1.60
2023-03-10T00:08:16.948Z,1.90
2023-03-10T00:10:57.312Z,1.83
2023-03-10T00:13:28.218Z,1.53
2023-03-10T00:15:56.712Z,1.07
2023-03-10T00:18:25.356Z,1.17
2023-03-10T00:20:55.190Z,1.70
2023-03-10T00:23:25.197Z,1.67
2023-03-10T00:26:01.514Z,1.20
2023-03-10T00:28:30.214Z,1.30
2023-03-10T00:31:00.467Z,1.10
2023-03-10T00:33:34.300Z,1.00
2023-03-10T00:36:08.605Z,0.97
2023-03-10T00:38:38.071Z,0.73
2023-03-10T00:41:14.850Z,0.90
2023-03-10T00:43:43.238Z,1.47
2023-03-10T00:46:12.072Z,0.80
2023-03-10T00:48:41.838Z,0.60
2023-03-10T00:51:11.330Z,0.70
2023-03-10T00:53:42.308Z,0.60
2023-03-10T00:56:18.948Z,0.80
2023-03-10T00:58:49.138Z,0.63
2023-03-10T01:01:21.595Z,0.97
2023-03-10T01:03:53.127Z,0.77
2023-03-10T01:06:27.064Z,0.50
2023-03-10T01:08:59.004Z,0.90
2023-03-10T01:11:29.892Z,0.90
2023-03-10T01:14:03.745Z,0.80
2023-03-10T01:16:33.476Z,0.60
2023-03-10T01:19:02.696Z,0.80
2023-03-10T01:21:34.105Z,0.70
2023-03-10T01:24:04.706Z,0.77
2023-03-10T01:26:36.105Z,0.70
2023-03-10T01:29:04.797Z,0.77
2023-03-10T01:31:32.946Z,0.67
2023-03-10T01:34:02.308Z,0.70
2023-03-10T01:36:30.590Z,0.77
2023-03-10T01:39:03.503Z,0.50
2023-03-10T01:41:33.922Z,0.60
2023-03-10T01:44:04.311Z,0.53
2023-03-10T01:46:57.454Z,0.60
2023-03-10T01:49:32.461Z,0.87
2023-03-10T01:52:07.630Z,0.40
2023-03-10T01:54:46.533Z,0.83
2023-03-10T01:57:22.348Z,0.40
2023-03-10T02:02:53.263Z,0.60
2023-03-10T02:05:27.000Z,0.77
2023-03-10T02:07:56.520Z,0.40
2023-03-10T02:10:28.146Z,0.67
2023-03-10T02:13:01.403Z,0.40
2023-03-10T02:15:31.991Z,0.50
2023-03-10T02:18:10.668Z,0.60
2023-03-10T02:20:48.242Z,0.60
2023-03-10T02:23:26.144Z,0.67
2023-03-10T02:26:00.326Z,0.40
2023-03-10T02:28:33.955Z,0.47
2023-03-10T02:31:04.565Z,0.80
2023-03-10T02:33:36.788Z,0.50
2023-03-10T02:36:13.230Z,0.40
2023-03-10T02:38:43.943Z,0.70
2023-03-10T02:41:23.325Z,0.50
2023-03-10T02:43:55.187Z,0.50
2023-03-10T02:46:29.277Z,0.40
2023-03-10T02:49:01.527Z,0.60
2023-03-10T02:51:36.535Z,0.60
2023-03-10T02:54:08.190Z,0.60
2023-03-10T02:56:37.730Z,0.80
2023-03-10T02:59:11.357Z,0.40
2023-03-10T03:01:39.698Z,0.60
2023-03-10T03:04:08.940Z,0.50
2023-03-10T03:06:37.251Z,0.60
2023-03-10T03:09:05.986Z,0.70
2023-03-10T03:11:35.954Z,0.70
2023-03-10T03:14:05.322Z,0.50
2023-03-10T03:16:36.402Z,1.03
2023-03-10T03:19:06.699Z,0.90
2023-03-10T03:21:34.656Z,0.97
2023-03-10T03:24:02.625Z,0.80
2023-03-10T03:26:31.038Z,0.80
2023-03-10T03:29:03.688Z,0.70
2023-03-10T03:31:32.346Z,0.90
2023-03-10T03:34:04.600Z,0.73
2023-03-10T03:36:33.082Z,0.90
2023-03-10T03:39:01.170Z,0.70
2023-03-10T03:41:29.746Z,0.43
2023-03-10T03:44:00.434Z,0.50
2023-03-10T03:46:31.970Z,0.80
2023-03-10T03:49:01.659Z,0.90
2023-03-10T03:51:30.748Z,1.00
2023-03-10T03:54:01.871Z,0.63
2023-03-10T03:56:32.774Z,0.60
2023-03-10T03:59:00.925Z,0.60
2023-03-10T04:01:31.830Z,0.73
2023-03-10T04:04:03.289Z,0.80
2023-03-10T04:06:31.933Z,0.63
2023-03-10T04:09:00.388Z,1.00
2023-03-10T04:11:30.565Z,0.60
2023-03-10T04:14:00.680Z,0.60
2023-03-10T04:16:29.662Z,0.70
2023-03-10T04:19:01.730Z,1.20
2023-03-10T04:21:31.933Z,0.80
2023-03-10T04:24:02.954Z,0.87
2023-03-10T04:26:34.422Z,0.67
2023-03-10T04:29:02.690Z,0.90
2023-03-10T04:31:33.985Z,0.90
2023-03-10T04:34:11.328Z,0.90
2023-03-10T04:36:44.555Z,0.73
2023-03-10T04:39:18.541Z,0.60
2023-03-10T04:41:46.530Z,0.90
2023-03-10T04:44:29.812Z,1.00
2023-03-10T04:47:01.736Z,1.03
2023-03-10T04:49:31.970Z,0.90
2023-03-10T04:52:04.439Z,1.40
2023-03-10T04:54:33.257Z,1.00
2023-03-10T04:57:02.667Z,0.83
2023-03-10T04:59:30.959Z,0.87
2023-03-10T05:02:04.630Z,0.83
2023-03-10T05:04:32.831Z,0.80
2023-03-10T05:07:03.305Z,0.87
2023-03-10T05:09:31.526Z,0.87
2023-03-10T05:11:59.821Z,1.63
2023-03-10T05:14:27.984Z,1.20
2023-03-10T05:16:57.199Z,0.87
2023-03-10T05:19:28.858Z,1.00
2023-03-10T05:21:59.538Z,1.30
2023-03-10T05:24:29.136Z,1.00
2023-03-10T05:26:57.819Z,1.20
2023-03-10T05:29:26.393Z,0.80
2023-03-10T05:32:10.757Z,1.10
2023-03-10T05:34:43.433Z,1.00
2023-03-10T05:37:13.097Z,1.10
2023-03-10T05:39:46.214Z,1.30
2023-03-10T05:42:16.181Z,1.30
2023-03-10T05:44:44.329Z,1.33
2023-03-10T05:50:23.076Z,1.27
2023-03-10T05:53:07.217Z,1.40
2023-03-10T05:55:43.624Z,1.30
2023-03-10T08:55:05.664Z,1.87
2023-03-10T08:57:34.818Z,1.60
2023-03-10T09:00:06.365Z,1.60
2023-03-10T09:02:37.604Z,1.40
2023-03-10T09:05:08.393Z,1.77
2023-03-10T09:07:40.970Z,1.47
2023-03-10T09:10:14.501Z,1.10
2023-03-10T09:12:48.507Z,0.90
2023-03-10T09:15:18.424Z,1.10
2023-03-10T09:17:46.935Z,0.90
2023-03-10T09:20:16.436Z,0.97
2023-03-10T09:22:45.855Z,0.80
2023-03-10T09:25:15.580Z,0.60
2023-03-10T09:27:46.592Z,0.87
2023-03-10T09:30:17.862Z,0.80
2023-03-10T09:33:01.394Z,0.90
2023-03-10T09:35:32.930Z,0.70
2023-03-10T09:38:01.823Z,1.13
2023-03-10T09:40:34.280Z,0.90
2023-03-10T09:43:07.218Z,1.57
2023-03-10T09:45:54.965Z,0.90
2023-03-10T09:48:45.181Z,0.90
2023-03-10T09:51:18.709Z,0.90
2023-03-10T09:54:00.002Z,1.20
2023-03-10T09:56:44.836Z,1.50
2023-03-10T09:59:18.515Z,1.27
2023-03-10T10:01:51.775Z,1.13
2023-03-10T10:04:26.860Z,1.00
2023-03-10T10:07:09.140Z,1.23
2023-03-10T10:09:45.242Z,1.70
2023-03-10T10:12:24.359Z,1.00
2023-03-10T10:14:58.315Z,1.00
2023-03-10T10:17:52.734Z,1.53
2023-03-10T10:20:29.887Z,1.13
2023-03-10T10:22:58.524Z,1.43
2023-03-10T10:25:32.287Z,2.90
2023-03-10T10:28:08.575Z,1.10
2023-03-10T10:30:40.532Z,1.10
2023-03-10T10:33:10.468Z,0.87
2023-03-10T10:35:47.126Z,0.93
2023-03-10T10:38:26.560Z,1.20
2023-03-10T10:41:03.471Z,0.90
2023-03-10T10:43:42.500Z,1.10
2023-03-10T10:46:12.774Z,0.90
2023-03-10T10:48:43.107Z,0.70
2023-03-10T10:51:24.537Z,0.90
2023-03-10T10:53:56.811Z,0.70
2023-03-10T10:56:25.377Z,0.70
2023-03-10T10:59:08.788Z,0.53
2023-03-10T11:01:49.580Z,0.80
2023-03-10T11:04:22.412Z,0.90
2023-03-10T11:07:09.252Z,0.60
2023-03-10T11:09:40.529Z,0.50
2023-03-10T11:12:20.712Z,1.03
2023-03-10T11:15:08.784Z,0.60
2023-03-10T11:17:44.518Z,0.87
2023-03-10T11:20:39.371Z,0.90
2023-03-10T11:23:27.036Z,0.80
2023-03-10T11:26:02.653Z,0.53
2023-03-10T11:28:41.997Z,0.50
2023-03-10T11:31:31.641Z,0.87
2023-03-10T11:34:16.862Z,0.50
2023-03-10T11:36:56.673Z,0.60
2023-03-10T11:39:37.636Z,0.57
2023-03-10T11:42:15.436Z,0.60
2023-03-10T11:44:55.496Z,0.60
2023-03-10T11:47:41.910Z,0.60
2023-03-10T11:50:21.124Z,0.70
2023-03-10T11:53:00.514Z,0.77
2023-03-10T11:55:34.546Z,0.60
2023-03-10T11:58:07.142Z,0.80
2023-03-10T12:00:41.465Z,0.87
2023-03-10T12:03:21.863Z,0.70
2023-03-10T12:05:53.934Z,0.63
2023-03-10T12:08:25.778Z,0.70
2023-03-10T12:10:55.234Z,0.60
2023-03-10T12:13:31.202Z,0.70
2023-03-10T12:16:10.678Z,0.90
2023-03-10T12:18:46.257Z,0.60
2023-03-10T12:21:24.008Z,0.50
2023-03-10T12:23:54.536Z,0.50
2023-03-10T12:26:59.200Z,0.60
2023-03-10T12:29:37.142Z,0.50
2023-03-10T12:32:07.413Z,0.77
2023-03-10T12:34:42.653Z,0.53
2023-03-10T12:37:12.318Z,0.60
2023-03-10T12:39:44.693Z,0.40
2023-03-10T12:42:39.790Z,0.60
2023-03-10T12:45:31.935Z,0.63
2023-03-10T12:48:08.481Z,0.60
2023-03-10T12:50:57.415Z,0.67
2023-03-10T12:54:16.634Z,0.80
2023-03-10T12:56:54.488Z,0.67
2023-03-10T13:00:00.035Z,0.80
2023-03-10T13:02:39.074Z,0.70
2023-03-10T13:05:21.440Z,0.70
2023-03-10T13:07:57.013Z,0.60
2023-03-10T13:10:29.285Z,0.73
2023-03-10T13:13:04.511Z,0.70
2023-03-10T13:15:35.814Z,0.87
2023-03-10T13:18:20.688Z,1.17
2023-03-10T13:20:56.494Z,0.40
2023-03-10T13:23:32.888Z,0.80
2023-03-10T13:26:08.364Z,0.80
2023-03-10T13:28:54.148Z,0.70
2023-03-10T13:31:28.313Z,0.90
2023-03-10T13:34:16.374Z,0.40
2023-03-10T13:36:51.503Z,0.43
2023-03-10T13:39:27.334Z,0.70
2023-03-10T13:42:01.452Z,0.70
2023-03-10T13:44:35.433Z,0.50
2023-03-10T13:47:06.771Z,0.70
2023-03-10T13:49:37.905Z,0.60
2023-03-10T13:52:09.862Z,0.70
2023-03-10T13:54:45.551Z,0.60
2023-03-10T14:00:08.884Z,0.80
2023-03-10T14:02:41.731Z,0.80
2023-03-10T14:05:30.449Z,0.70
2023-03-10T14:08:02.368Z,0.50
2023-03-10T14:10:34.001Z,0.73
2023-03-10T14:13:02.213Z,1.00
2023-03-10T14:15:38.954Z,0.73
2023-03-10T14:18:27.836Z,0.70
2023-03-10T14:21:01.062Z,0.60
2023-03-10T14:23:35.432Z,0.67
2023-03-10T14:26:13.616Z,0.80
2023-03-10T14:28:42.554Z,0.60
2023-03-10T14:31:23.722Z,0.60
2023-03-10T14:33:58.263Z,0.63
2023-03-10T14:36:27.695Z,0.83
2023-03-10T14:38:58.769Z,0.50
2023-03-10T14:41:32.479Z,0.67
2023-03-10T14:49:35.354Z,0.53
2023-03-10T14:52:03.838Z,0.70
2023-03-10T14:54:32.851Z,0.40
2023-03-10T14:57:06.309Z,0.40
2023-03-10T14:59:36.303Z,0.57
2023-03-10T15:02:28.726Z,0.47
2023-03-10T15:08:09.351Z,0.60
2023-03-10T15:10:48.001Z,0.70
2023-03-10T15:13:44.479Z,0.60
2023-03-10T15:16:18.143Z,0.50
2023-03-10T15:18:49.212Z,0.30
2023-03-10T15:21:22.632Z,0.53
2023-03-10T15:23:55.202Z,0.20
2023-03-10T15:26:23.709Z,0.30
2023-03-10T15:28:53.553Z,0.77
2023-03-10T15:31:22.129Z,0.40
2023-03-10T15:33:50.700Z,0.30
2023-03-10T15:36:19.410Z,0.20
2023-03-10T15:38:47.919Z,0.30
2023-03-10T15:41:17.337Z,0.40
2023-03-10T15:43:45.406Z,0.20
2023-03-10T15:46:18.919Z,0.40
2023-03-10T15:48:47.353Z,0.20
2023-03-10T15:51:18.192Z,0.40
2023-03-10T15:53:48.072Z,0.30
2023-03-10T15:56:17.455Z,0.20
2023-03-10T15:58:49.369Z,0.40
2023-03-10T16:01:21.268Z,0.37
2023-03-10T16:03:51.336Z,0.30
2023-03-10T16:06:19.500Z,0.30
2023-03-10T16:08:48.335Z,0.40
2023-03-10T16:11:23.388Z,0.50
2023-03-10T16:13:56.629Z,0.50
2023-03-10T16:16:31.949Z,0.50
2023-03-10T16:19:09.906Z,0.40
2023-03-10T16:21:39.200Z,0.40
2023-03-10T16:24:08.442Z,0.40
2023-03-10T16:26:36.867Z,0.50
2023-03-10T16:29:05.271Z,0.57
2023-03-10T16:31:42.269Z,0.60
2023-03-10T16:34:23.703Z,0.50
2023-03-10T16:37:02.421Z,0.60
2023-03-10T16:39:35.593Z,0.50
2023-03-10T16:42:07.147Z,0.50
2023-03-10T16:44:59.658Z,0.70
2023-03-10T16:47:45.405Z,0.73
2023-03-10T16:50:19.648Z,0.40
2023-03-10T16:52:55.625Z,0.63
2023-03-10T16:55:27.212Z,0.50
2023-03-10T16:58:09.953Z,0.53
2023-03-10T17:00:41.743Z,0.40
2023-03-10T17:03:18.085Z,0.50
2023-03-10T17:05:50.433Z,0.50
2023-03-10T17:08:24.446Z,0.50
2023-03-10T17:11:03.832Z,0.67
2023-03-10T17:13:34.477Z,0.80
2023-03-10T17:16:19.266Z,0.63
2023-03-10T17:19:00.175Z,0.60
2023-03-10T17:21:50.010Z,0.60
2023-03-10T17:24:24.481Z,0.40
2023-03-10T17:26:53.604Z,0.53
2023-03-10T17:29:21.701Z,0.60
2023-03-10T17:31:53.047Z,0.50
2023-03-10T17:34:25.772Z,0.47
2023-03-10T17:36:57.668Z,0.50
2023-03-10T17:39:27.627Z,0.57
2023-03-10T17:41:57.163Z,0.63
2023-03-10T17:44:27.783Z,0.60
2023-03-10T17:46:57.755Z,0.60
2023-03-10T17:49:29.771Z,0.63
2023-03-10T17:52:00.143Z,0.53
2023-03-10T17:54:37.306Z,0.60
2023-03-10T17:57:06.748Z,0.60
2023-03-10T17:59:39.273Z,0.53
2023-03-10T18:02:11.645Z,0.70
2023-03-10T18:04:49.683Z,0.53
2023-03-10T18:07:21.703Z,0.60
2023-03-10T18:09:50.892Z,0.67
2023-03-10T18:13:01.442Z,0.80
2023-03-10T18:15:31.764Z,0.80
2023-03-10T18:18:00.895Z,0.60
2023-03-10T18:20:31.513Z,0.47
2023-03-10T18:23:01.058Z,0.50
2023-03-10T18:25:34.379Z,0.70
2023-03-10T18:28:03.159Z,0.73
2023-03-10T18:30:32.291Z,0.60
2023-03-10T18:33:00.368Z,0.50
2023-03-10T18:35:49.177Z,0.87
2023-03-10T18:38:21.457Z,0.50
2023-03-10T18:40:52.035Z,0.50
2023-03-10T18:46:53.434Z,0.57
2023-03-10T21:23:49.960Z,2.53
2023-03-10T21:58:47.473Z,1.60
2023-03-10T22:01:18.537Z,1.67
2023-03-10T22:03:49.314Z,1.80
2023-03-10T22:09:22.108Z,1.80
2023-03-10T22:11:56.804Z,2.00
2023-03-10T22:14:35.125Z,1.70
2023-03-10T22:17:28.890Z,2.00
2023-03-10T22:20:01.864Z,1.90
2023-03-10T22:22:31.841Z,1.40
2023-03-10T22:25:03.977Z,1.37
2023-03-10T22:27:32.366Z,2.30
2023-03-10T22:37:11.376Z,1.30
2023-03-10T22:39:55.559Z,1.47
2023-03-10T22:42:26.733Z,1.77
